createdAt,value
2024-05-09T00:01:26.283Z,66.92
2024-05-09T00:03:28.041Z,66.74
2024-05-09T00:05:29.933Z,66.41
2024-05-09T00:07:31.600Z,66.17
2024-05-09T00:09:33.257Z,66.26
2024-05-09T00:11:35.002Z,65.64
2024-05-09T00:13:36.723Z,66.37
2024-05-09T00:15:38.345Z,66.64
2024-05-09T00:17:40.353Z,66.37
2024-05-09T00:19:42.763Z,65.68
2024-05-09T00:21:44.409Z,65.86
2024-05-09T00:23:46.039Z,66.67
2024-05-09T00:25:47.733Z,65.88
2024-05-09T00:27:49.386Z,65.63
2024-05-09T00:29:51.034Z,65.63
2024-05-09T00:31:52.910Z,66.24
2024-05-09T00:33:54.731Z,65.43
2024-05-09T00:35:56.469Z,66.99
2024-05-09T00:37:58.251Z,67.79
2024-05-09T00:39:59.911Z,67.20
2024-05-09T00:42:01.527Z,66.22
2024-05-09T00:44:03.547Z,66.99
2024-05-09T00:46:06.149Z,67.29
2024-05-09T00:48:11.606Z,67.03
2024-05-09T00:50:19.422Z,66.94
2024-05-09T00:52:24.867Z,67.36
2024-05-09T00:54:27.513Z,67.22
2024-05-09T00:56:29.290Z,66.38
2024-05-09T00:58:31.264Z,66.54
2024-05-09T01:00:38.713Z,66.28
2024-05-09T01:02:42.462Z,67.10
2024-05-09T01:04:44.341Z,66.15
2024-05-09T01:06:46.798Z,66.20
2024-05-09T01:08:48.536Z,66.96
2024-05-09T01:10:50.278Z,68.09
2024-05-09T01:12:51.992Z,66.57
2024-05-09T01:14:53.660Z,66.13
2024-05-09T01:16:55.576Z,66.10
2024-05-09T01:18:58.363Z,66.94
2024-05-09T01:21:00.122Z,65.59
2024-05-09T01:23:05.550Z,66.69
2024-05-09T01:25:07.223Z,68.31
2024-05-09T01:27:08.847Z,68.80
2024-05-09T01:29:10.612Z,67.46
2024-05-09T01:31:14.770Z,67.83
2024-05-09T01:33:16.676Z,67.11
2024-05-09T01:35:22.323Z,67.20
2024-05-09T01:37:23.980Z,68.29
2024-05-09T01:39:25.604Z,67.90
2024-05-09T01:41:27.357Z,68.17
2024-05-09T01:43:29.015Z,67.99
2024-05-09T01:45:30.632Z,69.30
2024-05-09T01:47:32.353Z,69.41
2024-05-09T01:49:36.330Z,68.73
2024-05-09T01:51:38.024Z,70.26
2024-05-09T01:53:39.694Z,68.72
2024-05-09T01:55:41.979Z,68.37
2024-05-09T01:57:43.634Z,69.31
2024-05-09T01:59:46.234Z,69.13
2024-05-09T02:01:56.595Z,68.04
2024-05-09T02:03:59.557Z,68.30
2024-05-09T02:06:01.606Z,67.72
2024-05-09T02:08:04.214Z,68.15
2024-05-09T02:10:13.633Z,69.15
2024-05-09T02:12:18.333Z,69.20
2024-05-09T02:14:20.134Z,68.64
2024-05-09T02:16:21.802Z,69.46
2024-05-09T02:18:23.686Z,68.94
2024-05-09T02:20:33.113Z,68.17
2024-05-09T02:22:37.675Z,68.32
2024-05-09T02:24:39.302Z,68.23
2024-05-09T02:26:41.009Z,68.47
2024-05-09T02:28:42.652Z,67.55
2024-05-09T02:30:44.279Z,67.86
2024-05-09T02:32:46.115Z,67.95
2024-05-09T02:34:47.952Z,67.54
2024-05-09T02:36:49.584Z,67.94
2024-05-09T02:38:51.220Z,68.74
2024-05-09T02:40:52.892Z,69.02
2024-05-09T02:42:54.506Z,69.59
2024-05-09T02:44:56.143Z,68.87
2024-05-09T02:46:57.763Z,69.23
2024-05-09T02:48:59.504Z,69.06
2024-05-09T02:51:01.662Z,70.17
2024-05-09T02:53:03.460Z,70.33
2024-05-09T02:55:05.107Z,71.39
2024-05-09T02:57:07.075Z,71.13
2024-05-09T02:59:08.732Z,70.61
2024-05-09T03:01:10.427Z,71.09
2024-05-09T03:03:14.503Z,72.17
2024-05-09T03:05:17.396Z,72.54
2024-05-09T03:07:20.253Z,73.36
2024-05-09T03:09:22.897Z,72.81
2024-05-09T03:11:25.341Z,72.53
2024-05-09T03:13:27.212Z,73.40
2024-05-09T03:15:31.638Z,74.15
2024-05-09T03:17:33.613Z,74.27
2024-05-09T03:19:35.926Z,73.43
2024-05-09T03:21:40.618Z,74.61
2024-05-09T03:23:42.970Z,73.50
2024-05-09T03:25:44.814Z,73.87
2024-05-09T03:27:46.810Z,74.16
2024-05-09T03:29:48.448Z,73.45
2024-05-09T03:31:50.152Z,73.52
2024-05-09T03:33:51.960Z,72.88
2024-05-09T03:35:53.620Z,72.89
2024-05-09T03:37:55.284Z,73.31
2024-05-09T03:39:56.923Z,73.18
2024-05-09T03:41:58.567Z,73.48
2024-05-09T03:44:00.280Z,73.38
2024-05-09T03:46:01.962Z,72.82
2024-05-09T03:48:03.821Z,73.93
2024-05-09T03:50:07.801Z,73.39
2024-05-09T03:52:13.731Z,72.94
2024-05-09T03:54:15.410Z,72.16
2024-05-09T03:56:17.332Z,71.55
2024-05-09T03:58:19.049Z,71.77
2024-05-09T04:00:30.483Z,71.71
2024-05-09T04:02:41.486Z,70.94
2024-05-09T04:04:43.871Z,71.47
2024-05-09T04:06:45.551Z,71.16
2024-05-09T04:08:48.762Z,70.60
2024-05-09T04:10:50.508Z,71.13
2024-05-09T04:12:52.316Z,71.30
2024-05-09T04:14:53.940Z,69.48
2024-05-09T04:16:55.689Z,70.02
2024-05-09T04:18:57.441Z,70.43
2024-05-09T04:20:59.309Z,71.07
2024-05-09T04:23:01.126Z,70.35
2024-05-09T04:25:02.891Z,69.84
2024-05-09T04:27:04.609Z,69.71
2024-05-09T04:29:06.792Z,69.92
2024-05-09T04:31:08.471Z,71.31
2024-05-09T04:33:12.439Z,70.50
2024-05-09T04:35:19.100Z,71.26
2024-05-09T04:37:20.736Z,70.33
2024-05-09T04:39:22.361Z,69.09
2024-05-09T04:41:24.044Z,70.34
2024-05-09T04:43:25.686Z,71.38
2024-05-09T04:45:27.380Z,69.68
2024-05-09T04:47:29.107Z,70.58
2024-05-09T04:49:31.100Z,71.57
2024-05-09T04:51:34.355Z,69.08
2024-05-09T04:53:36.198Z,68.38
2024-05-09T04:55:38.839Z,67.06
2024-05-09T04:57:40.475Z,66.91
2024-05-09T04:59:42.418Z,65.66
2024-05-09T05:01:45.039Z,64.24
2024-05-09T05:03:48.201Z,63.31
2024-05-09T05:05:49.978Z,64.26
2024-05-09T05:07:51.735Z,61.85
2024-05-09T05:09:53.362Z,60.95
2024-05-09T05:11:55.105Z,59.79
2024-05-09T05:13:56.818Z,57.65
2024-05-09T05:15:58.879Z,56.05
2024-05-09T05:18:00.711Z,55.85
2024-05-09T05:20:02.974Z,53.83
2024-05-09T05:22:04.892Z,50.97
2024-05-09T05:24:06.516Z,50.58
2024-05-09T05:26:08.199Z,49.07
2024-05-09T05:28:10.131Z,50.30
2024-05-09T05:32:16.497Z,47.41
2024-05-09T05:34:18.216Z,48.89
2024-05-09T05:36:19.860Z,46.76
2024-05-09T05:38:25.032Z,48.48
2024-05-09T05:40:36.565Z,44.25
2024-05-09T05:42:39.814Z,46.78
2024-05-09T05:44:41.541Z,44.81
2024-05-09T05:46:43.206Z,45.68
2024-05-09T05:48:44.909Z,44.90
2024-05-09T05:50:46.857Z,44.84
2024-05-09T05:52:48.596Z,44.03
2024-05-09T05:54:50.758Z,44.31
2024-05-09T05:56:52.391Z,44.17
2024-05-09T05:58:54.089Z,42.21
2024-05-09T06:00:55.795Z,43.51
2024-05-09T06:02:57.555Z,42.95
2024-05-09T06:04:59.348Z,42.63
2024-05-09T06:07:01.074Z,42.32
2024-05-09T06:09:02.714Z,43.12
2024-05-09T06:11:04.466Z,42.26
2024-05-09T06:13:06.737Z,42.04
2024-05-09T06:15:08.375Z,42.07
2024-05-09T06:17:10.244Z,39.84
2024-05-09T06:19:12.091Z,40.14
2024-05-09T06:21:16.512Z,40.68
2024-05-09T06:23:18.436Z,40.69
2024-05-09T06:25:20.165Z,39.58
2024-05-09T06:27:21.802Z,39.85
2024-05-09T06:29:23.460Z,39.00
2024-05-09T06:31:25.158Z,41.23
2024-05-09T06:33:27.001Z,42.21
2024-05-09T06:35:28.823Z,39.77
2024-05-09T06:37:30.487Z,37.95
2024-05-09T06:39:32.118Z,34.17
2024-05-09T06:41:33.829Z,34.98
2024-05-09T06:43:36.552Z,33.78
2024-05-09T06:45:38.503Z,30.73
2024-05-09T06:47:40.563Z,31.17
2024-05-09T06:49:42.516Z,30.85
2024-05-09T06:51:44.158Z,30.03
2024-05-09T06:53:46.124Z,31.61
2024-05-09T06:55:48.279Z,31.22
2024-05-09T06:57:49.931Z,31.95
2024-05-09T06:59:51.574Z,32.11
2024-05-09T07:01:53.214Z,33.40
2024-05-09T07:03:54.933Z,30.85
2024-05-09T07:05:56.819Z,28.44
2024-05-09T07:07:58.464Z,28.45
2024-05-09T07:10:00.131Z,28.42
2024-05-09T07:12:02.524Z,28.08
2024-05-09T07:14:04.915Z,28.76
2024-05-09T07:16:06.678Z,28.78
2024-05-09T07:18:15.295Z,30.17
2024-05-09T07:20:23.639Z,30.92
2024-05-09T07:22:33.660Z,30.51
2024-05-09T07:24:36.321Z,29.97
2024-05-09T07:26:38.146Z,30.29
2024-05-09T07:28:39.905Z,31.85
2024-05-09T07:30:41.962Z,31.25
2024-05-09T07:32:43.935Z,32.39
2024-05-09T07:34:45.748Z,32.91
2024-05-09T07:36:47.411Z,31.63
2024-05-09T07:38:49.104Z,33.30
2024-05-09T07:40:50.846Z,32.38
2024-05-09T07:42:52.584Z,31.29
2024-05-09T07:44:55.516Z,30.86
2024-05-09T07:50:53.117Z,31.72
2024-05-09T07:53:40.004Z,30.93
2024-05-09T07:55:46.292Z,31.44
2024-05-09T07:57:48.019Z,31.38
2024-05-09T07:59:49.667Z,31.85
2024-05-09T08:01:51.363Z,32.28
2024-05-09T08:03:53.967Z,31.60
2024-05-09T08:05:55.758Z,30.85
2024-05-09T08:07:57.369Z,32.82
2024-05-09T08:09:59.053Z,31.96
2024-05-09T08:12:00.674Z,32.81
2024-05-09T08:14:02.311Z,32.07
2024-05-09T08:16:04.315Z,33.72
2024-05-09T08:18:10.181Z,33.76
2024-05-09T08:20:15.877Z,33.75
2024-05-09T08:22:20.445Z,34.44
2024-05-09T08:24:22.100Z,33.08
2024-05-09T08:26:23.717Z,33.67
2024-05-09T08:28:25.398Z,33.35
2024-05-09T08:30:33.203Z,31.95
2024-05-09T08:32:39.421Z,32.79
2024-05-09T08:34:41.435Z,31.33
2024-05-09T08:36:43.153Z,32.92
2024-05-09T08:38:44.812Z,30.49
2024-05-09T08:40:47.648Z,31.91
2024-05-09T08:42:54.240Z,33.10
2024-05-09T08:44:55.899Z,32.47
2024-05-09T08:46:58.630Z,35.76
2024-05-09T08:49:02.664Z,33.39
2024-05-09T08:51:05.749Z,32.90
2024-05-09T08:53:07.765Z,31.99
2024-05-09T08:55:10.008Z,32.72
2024-05-09T08:57:13.695Z,31.56
2024-05-09T08:59:22.780Z,31.50
2024-05-09T09:01:29.355Z,29.22
2024-05-09T09:03:32.900Z,29.38
2024-05-09T09:05:38.293Z,26.91
2024-05-09T09:07:40.091Z,26.45
2024-05-09T09:09:44.725Z,28.10
2024-05-09T09:11:46.389Z,26.05
2024-05-09T09:13:48.739Z,26.81
2024-05-09T09:15:51.000Z,24.87
2024-05-09T09:17:55.027Z,24.64
2024-05-09T09:19:58.700Z,23.71
2024-05-09T09:22:00.499Z,24.23
2024-05-09T09:24:02.344Z,23.32
2024-05-09T09:26:04.337Z,25.87
2024-05-09T09:28:06.383Z,24.73
2024-05-09T09:30:18.466Z,24.08
2024-05-09T09:32:29.697Z,23.47
2024-05-09T09:34:32.322Z,24.65
2024-05-09T09:36:37.349Z,24.73
2024-05-09T09:38:41.772Z,25.07
2024-05-09T09:40:49.792Z,24.09
2024-05-09T09:42:56.591Z,23.77
2024-05-09T09:45:04.685Z,24.02
2024-05-09T09:47:08.426Z,23.64
2024-05-09T09:49:10.771Z,24.17
2024-05-09T09:51:15.370Z,24.51
2024-05-09T09:53:18.195Z,24.48
2024-05-09T09:55:21.653Z,24.22
2024-05-09T09:57:26.102Z,23.65
2024-05-09T09:59:28.634Z,23.29
2024-05-09T10:01:30.887Z,21.14
2024-05-09T10:03:33.049Z,20.51
2024-05-09T10:05:35.611Z,21.21
2024-05-09T10:07:42.563Z,20.90
2024-05-09T10:09:45.053Z,22.39
2024-05-09T10:11:52.005Z,22.05
2024-05-09T10:13:56.613Z,23.04
2024-05-09T10:16:06.841Z,22.31
2024-05-09T10:18:08.661Z,22.12
2024-05-09T10:20:18.312Z,22.36
2024-05-09T10:22:29.900Z,22.48
2024-05-09T10:24:52.362Z,22.30
2024-05-09T10:26:55.214Z,20.35
2024-05-09T10:28:57.640Z,22.83
2024-05-09T10:31:07.411Z,22.60
2024-05-09T10:33:10.035Z,21.49
2024-05-09T10:35:13.852Z,21.23
2024-05-09T10:37:17.981Z,21.39
2024-05-09T10:39:20.614Z,21.35
2024-05-09T10:41:23.122Z,22.19
2024-05-09T10:43:25.814Z,20.35
2024-05-09T10:45:27.558Z,21.57
2024-05-09T10:47:29.390Z,22.48
2024-05-09T10:49:31.146Z,21.73
2024-05-09T10:51:33.872Z,18.29
2024-05-09T10:53:46.927Z,19.10
2024-05-09T10:55:58.694Z,19.21
2024-05-09T10:58:00.473Z,17.96
2024-05-09T11:00:04.930Z,19.06
2024-05-09T11:02:09.610Z,20.66
2024-05-09T11:04:12.881Z,19.52
2024-05-09T11:06:16.250Z,20.15
2024-05-09T11:08:20.975Z,20.90
2024-05-09T11:10:31.582Z,20.90
2024-05-09T11:12:35.759Z,20.45
2024-05-09T11:14:37.523Z,19.16
2024-05-09T11:16:39.220Z,20.37
2024-05-09T11:18:41.212Z,18.94
2024-05-09T11:20:43.097Z,17.94
2024-05-09T11:22:45.093Z,19.34
2024-05-09T11:24:47.727Z,20.53
2024-05-09T11:26:49.428Z,19.59
2024-05-09T11:28:51.205Z,20.29
2024-05-09T11:31:06.971Z,19.39
2024-05-09T11:33:19.139Z,20.80
2024-05-09T11:35:20.863Z,21.16
2024-05-09T11:37:22.533Z,19.79
2024-05-09T11:39:24.423Z,20.38
2024-05-09T11:41:26.131Z,20.54
2024-05-09T11:43:27.866Z,21.00
2024-05-09T11:45:29.566Z,20.30
2024-05-09T11:47:31.272Z,19.42
2024-05-09T11:49:33.275Z,18.89
2024-05-09T11:51:35.071Z,19.40
2024-05-09T11:53:36.748Z,18.98
2024-05-09T11:55:38.380Z,18.78
2024-05-09T11:57:40.068Z,18.25
2024-05-09T11:59:41.735Z,19.64
2024-05-09T12:01:43.754Z,19.74
2024-05-09T12:03:47.352Z,19.83
2024-05-09T12:05:49.326Z,18.46
2024-05-09T12:07:51.679Z,19.15
2024-05-09T12:09:53.362Z,17.99
2024-05-09T12:11:55.111Z,17.68
2024-05-09T12:13:56.752Z,17.58
2024-05-09T12:15:58.494Z,17.24
2024-05-09T12:18:02.891Z,18.75
2024-05-09T12:20:11.341Z,17.54
2024-05-09T12:22:19.005Z,17.96
2024-05-09T12:24:20.667Z,17.56
2024-05-09T12:26:22.392Z,18.17
2024-05-09T12:28:25.327Z,18.12
2024-05-09T12:30:34.949Z,18.61
2024-05-09T12:32:40.253Z,17.61
2024-05-09T12:34:41.999Z,17.94
2024-05-09T12:36:43.778Z,18.93
2024-05-09T12:38:45.477Z,18.14
2024-05-09T12:40:47.178Z,19.03
2024-05-09T12:42:48.894Z,19.83
2024-05-09T12:44:50.612Z,20.56
2024-05-09T12:46:52.292Z,17.14
2024-05-09T12:48:54.336Z,18.51
2024-05-09T12:50:56.496Z,19.11
2024-05-09T12:52:58.173Z,20.33
2024-05-09T12:54:59.841Z,19.33
2024-05-09T12:57:01.485Z,20.29
2024-05-09T12:59:03.155Z,21.31
2024-05-09T13:01:04.879Z,19.46
2024-05-09T13:03:06.669Z,19.29
2024-05-09T13:05:09.494Z,19.25
2024-05-09T13:07:11.367Z,20.01
2024-05-09T13:09:13.090Z,19.51
2024-05-09T13:11:14.991Z,19.65
2024-05-09T13:13:17.016Z,20.04
2024-05-09T13:15:18.800Z,20.83
2024-05-09T13:17:20.711Z,18.25
2024-05-09T13:19:22.708Z,18.94
2024-05-09T13:21:24.423Z,20.77
2024-05-09T13:23:26.036Z,17.78
2024-05-09T13:25:27.729Z,18.84
2024-05-09T13:27:29.420Z,18.41
2024-05-09T13:29:31.193Z,19.08
2024-05-09T13:31:32.851Z,19.00
2024-05-09T13:33:34.676Z,19.39
2024-05-09T13:35:36.526Z,20.00
2024-05-09T13:37:38.259Z,19.53
2024-05-09T13:39:40.005Z,20.29
2024-05-09T13:41:41.845Z,19.65
2024-05-09T13:43:43.497Z,19.86
2024-05-09T13:45:45.985Z,19.40
2024-05-09T13:47:47.996Z,21.97
2024-05-09T13:49:49.926Z,21.22
2024-05-09T13:51:51.659Z,21.50
2024-05-09T13:53:55.579Z,19.01
2024-05-09T13:55:57.297Z,19.81
2024-05-09T13:57:59.659Z,19.53
2024-05-09T14:00:01.366Z,19.20
2024-05-09T14:02:13.239Z,19.88
2024-05-09T14:04:15.861Z,20.68
2024-05-09T14:06:17.965Z,19.61
2024-05-09T14:08:20.717Z,21.49
2024-05-09T14:10:28.516Z,19.50
2024-05-09T14:12:32.661Z,20.05
2024-05-09T14:14:34.341Z,21.96
2024-05-09T14:16:37.183Z,19.41
2024-05-09T14:18:38.984Z,20.44
2024-05-09T14:20:41.337Z,20.53
2024-05-09T14:22:43.002Z,20.46
2024-05-09T14:24:44.684Z,20.06
2024-05-09T14:26:46.306Z,20.80
2024-05-09T14:28:47.949Z,20.56
2024-05-09T14:30:49.831Z,22.99
2024-05-09T14:32:52.168Z,20.69
2024-05-09T14:34:54.089Z,20.99
2024-05-09T14:36:57.619Z,21.37
2024-05-09T14:38:59.338Z,20.14
2024-05-09T14:41:01.030Z,19.87
2024-05-09T14:43:03.365Z,20.20
2024-05-09T14:45:05.406Z,20.11
2024-05-09T14:47:08.911Z,19.96
2024-05-09T14:49:12.468Z,19.78
2024-05-09T14:51:15.342Z,19.85
2024-05-09T14:53:16.953Z,20.91
2024-05-09T14:55:18.618Z,21.66
2024-05-09T14:57:20.274Z,21.41
2024-05-09T14:59:21.889Z,20.89
2024-05-09T15:01:23.866Z,20.93
2024-05-09T15:03:26.043Z,20.75
2024-05-09T15:05:28.284Z,21.14
2024-05-09T15:07:30.064Z,21.35
2024-05-09T15:09:35.892Z,20.69
2024-05-09T15:11:37.571Z,21.42
2024-05-09T15:13:39.312Z,21.14
2024-05-09T15:15:41.560Z,20.88
2024-05-09T15:17:43.847Z,22.60
2024-05-09T15:19:45.611Z,21.42
2024-05-09T15:21:47.324Z,20.32
2024-05-09T15:23:48.975Z,21.43
2024-05-09T15:25:50.610Z,21.17
2024-05-09T15:27:52.354Z,21.82
2024-05-09T15:29:54.006Z,20.82
2024-05-09T15:31:55.692Z,20.94
2024-05-09T15:33:57.407Z,22.65
2024-05-09T15:35:59.142Z,22.02
2024-05-09T15:38:01.683Z,22.35
2024-05-09T15:40:04.464Z,20.63
2024-05-09T15:42:07.089Z,20.55
2024-05-09T15:44:08.730Z,22.42
2024-05-09T15:46:11.207Z,21.52
2024-05-09T15:48:13.167Z,21.37
2024-05-09T15:50:20.565Z,21.08
2024-05-09T15:52:30.080Z,22.67
2024-05-09T15:54:31.745Z,20.99
2024-05-09T15:56:34.842Z,22.31
2024-05-09T15:58:36.466Z,22.37
2024-05-09T16:00:41.546Z,21.82
2024-05-09T16:02:46.687Z,22.21
2024-05-09T16:04:48.669Z,20.64
2024-05-09T16:06:50.437Z,21.73
2024-05-09T16:08:52.114Z,20.84
2024-05-09T16:10:53.833Z,21.73
2024-05-09T16:12:56.082Z,21.97
2024-05-09T16:14:57.811Z,21.90
2024-05-09T16:16:59.627Z,21.88
2024-05-09T16:19:01.555Z,22.58
2024-05-09T16:21:04.280Z,23.01
2024-05-09T16:23:06.604Z,24.07
2024-05-09T16:25:08.361Z,24.16
2024-05-09T16:27:10.535Z,26.34
2024-05-09T16:29:12.190Z,25.25
2024-05-09T16:31:13.910Z,28.38
2024-05-09T16:33:20.014Z,28.67
2024-05-09T16:35:21.842Z,25.36
2024-05-09T16:37:25.897Z,24.70
2024-05-09T16:39:29.144Z,25.82
2024-05-09T16:41:30.774Z,25.59
2024-05-09T16:43:32.583Z,26.23
2024-05-09T16:45:34.437Z,24.57
2024-05-09T16:47:36.383Z,23.71
2024-05-09T16:49:38.160Z,25.27
2024-05-09T16:51:39.831Z,23.66
2024-05-09T16:53:41.482Z,24.05
2024-05-09T16:55:43.132Z,23.86
2024-05-09T16:57:44.810Z,24.91
2024-05-09T16:59:46.527Z,24.13
2024-05-09T17:01:48.204Z,24.99
2024-05-09T17:03:50.216Z,25.00
2024-05-09T17:05:52.296Z,25.83
2024-05-09T17:07:54.743Z,24.64
2024-05-09T17:09:56.489Z,25.02
2024-05-09T17:11:58.156Z,24.26
2024-05-09T17:13:59.850Z,25.79
2024-05-09T17:16:02.478Z,25.17
2024-05-09T17:18:08.581Z,27.39
2024-05-09T17:20:22.558Z,27.79
2024-05-09T17:22:31.021Z,26.07
2024-05-09T17:24:32.720Z,26.43
2024-05-09T17:26:34.468Z,29.12
2024-05-09T17:28:36.356Z,28.29
2024-05-09T17:30:39.990Z,29.63
2024-05-09T17:32:43.251Z,31.28
2024-05-09T17:34:45.074Z,34.02
2024-05-09T17:36:46.821Z,32.41
2024-05-09T17:38:49.153Z,33.95
2024-05-09T17:40:51.990Z,34.66
2024-05-09T17:42:53.866Z,34.22
2024-05-09T17:44:55.517Z,35.44
2024-05-09T17:46:57.188Z,34.82
2024-05-09T17:49:00.956Z,36.28
2024-05-09T17:51:03.052Z,35.98
2024-05-09T17:53:05.529Z,36.57
2024-05-09T17:55:07.385Z,37.73
2024-05-09T17:57:09.053Z,37.99
2024-05-09T17:59:11.671Z,38.18
2024-05-09T18:01:13.999Z,38.90
2024-05-09T18:03:15.701Z,39.34
2024-05-09T18:05:17.474Z,38.82
2024-05-09T18:07:19.377Z,41.03
2024-05-09T18:09:21.132Z,40.94
2024-05-09T18:11:23.899Z,41.54
2024-05-09T18:13:25.887Z,40.97
2024-05-09T18:15:27.621Z,42.57
2024-05-09T18:17:29.349Z,42.17
2024-05-09T18:19:31.140Z,42.86
2024-05-09T18:21:33.144Z,43.84
2024-05-09T18:23:34.816Z,46.27
2024-05-09T18:25:36.627Z,47.90
2024-05-09T18:27:38.494Z,48.09
2024-05-09T18:29:40.226Z,48.22
2024-05-09T18:31:41.961Z,47.29
2024-05-09T18:33:43.906Z,47.74
2024-05-09T18:35:45.892Z,47.88
2024-05-09T18:37:48.053Z,49.67
2024-05-09T18:39:49.790Z,48.68
2024-05-09T18:41:51.873Z,49.76
2024-05-09T18:43:53.994Z,48.75
2024-05-09T18:45:56.028Z,48.75
2024-05-09T18:47:58.327Z,49.65
2024-05-09T18:50:00.516Z,50.18
2024-05-09T18:52:02.908Z,49.70
2024-05-09T18:54:04.900Z,50.92
2024-05-09T18:56:07.476Z,50.66
2024-05-09T18:58:10.241Z,50.17
2024-05-09T19:00:19.312Z,51.78
2024-05-09T19:02:29.189Z,52.87
2024-05-09T19:04:31.350Z,51.61
2024-05-09T19:06:35.391Z,52.26
2024-05-09T19:08:37.183Z,52.80
2024-05-09T19:10:40.352Z,52.70
2024-05-09T19:12:42.456Z,53.53
2024-05-09T19:14:44.258Z,51.95
2024-05-09T19:16:46.472Z,53.52
2024-05-09T19:18:50.435Z,54.62
2024-05-09T19:20:53.475Z,54.83
2024-05-09T19:22:56.991Z,55.23
2024-05-09T19:24:59.013Z,55.20
2024-05-09T19:27:02.924Z,55.33
2024-05-09T19:29:05.277Z,54.67
2024-05-09T19:31:07.160Z,56.03
2024-05-09T19:33:14.256Z,56.11
2024-05-09T19:35:16.965Z,55.71
2024-05-09T19:37:19.006Z,56.77
2024-05-09T19:39:21.088Z,55.80
2024-05-09T19:41:23.236Z,56.67
2024-05-09T19:43:25.703Z,56.32
2024-05-09T19:45:28.055Z,57.30
2024-05-09T19:47:31.050Z,56.87
2024-05-09T19:49:33.525Z,56.91
2024-05-09T19:51:35.983Z,56.16
2024-05-09T19:53:38.264Z,57.48
2024-05-09T19:55:40.774Z,57.49
2024-05-09T19:57:42.960Z,58.34
2024-05-09T19:59:45.151Z,59.06
2024-05-09T20:01:47.677Z,58.10
2024-05-09T20:03:50.228Z,59.12
2024-05-09T20:05:52.242Z,58.88
2024-05-09T20:07:54.004Z,57.62
2024-05-09T20:09:55.888Z,58.68
2024-05-09T20:11:57.593Z,59.63
2024-05-09T20:13:59.736Z,58.71
2024-05-09T20:16:01.840Z,58.08
2024-05-09T20:18:04.820Z,58.20
2024-05-09T20:20:09.326Z,59.93
2024-05-09T20:22:16.200Z,58.97
2024-05-09T20:24:19.572Z,59.97
2024-05-09T20:26:21.668Z,59.59
2024-05-09T20:28:24.986Z,60.57
2024-05-09T20:30:32.508Z,61.12
2024-05-09T20:32:36.267Z,61.94
2024-05-09T20:34:39.638Z,62.49
2024-05-09T20:36:41.884Z,62.26
2024-05-09T20:38:43.743Z,62.67
2024-05-09T20:40:45.602Z,62.51
2024-05-09T20:42:47.845Z,62.55
2024-05-09T20:44:50.205Z,63.30
2024-05-09T20:46:52.020Z,62.56
2024-05-09T20:48:55.277Z,61.80
2024-05-09T20:50:57.103Z,63.04
2024-05-09T20:52:58.770Z,63.47
2024-05-09T20:55:00.575Z,62.65
2024-05-09T20:57:02.272Z,63.40
2024-05-09T20:59:03.917Z,63.38
2024-05-09T21:01:05.625Z,62.69
2024-05-09T21:03:07.766Z,63.64
2024-05-09T21:05:09.764Z,63.69
2024-05-09T21:07:11.677Z,63.89
2024-05-09T21:09:13.472Z,63.54
2024-05-09T21:11:15.088Z,64.94
2024-05-09T21:13:16.763Z,64.21
2024-05-09T21:15:18.425Z,63.69
2024-05-09T21:17:20.147Z,64.57
2024-05-09T21:19:21.872Z,65.17
2024-05-09T21:21:23.585Z,65.40
2024-05-09T21:23:25.209Z,65.28
2024-05-09T21:25:26.886Z,65.33
2024-05-09T21:27:28.538Z,65.02
2024-05-09T21:29:30.159Z,65.53
2024-05-09T21:31:32.010Z,66.05
2024-05-09T21:33:36.126Z,65.71
2024-05-09T21:35:37.942Z,64.60
2024-05-09T21:37:39.636Z,63.89
2024-05-09T21:39:42.112Z,66.25
2024-05-09T21:41:43.745Z,66.74
2024-05-09T21:43:45.367Z,66.89
2024-05-09T21:45:47.022Z,66.95
2024-05-09T21:47:48.723Z,67.14
2024-05-09T21:49:50.442Z,66.53
2024-05-09T21:51:52.097Z,67.49
2024-05-09T21:53:55.442Z,67.64
2024-05-09T21:55:57.060Z,67.76
2024-05-09T21:57:58.746Z,68.17
2024-05-09T22:00:00.405Z,69.15
2024-05-09T22:02:02.227Z,69.09
2024-05-09T22:04:04.084Z,69.17
2024-05-09T22:06:06.020Z,68.62
2024-05-09T22:08:07.653Z,68.92
2024-05-09T22:10:16.067Z,68.00
2024-05-09T22:12:24.003Z,65.57
2024-05-09T22:14:25.646Z,67.25
2024-05-09T22:16:27.353Z,68.50
2024-05-09T22:18:29.028Z,69.85
2024-05-09T22:20:36.740Z,69.52
2024-05-09T22:22:40.678Z,69.66
2024-05-09T22:24:42.360Z,69.01
2024-05-09T22:26:44.012Z,66.67
2024-05-09T22:28:45.631Z,68.14
2024-05-09T22:30:49.303Z,69.31
2024-05-09T22:32:51.032Z,69.43
2024-05-09T22:34:52.797Z,70.51
2024-05-09T22:36:54.474Z,70.41
2024-05-09T22:38:56.135Z,71.24
2024-05-09T22:40:57.924Z,72.33
2024-05-09T22:42:59.722Z,71.43
2024-05-09T22:45:01.390Z,69.74
2024-05-09T22:47:03.235Z,69.46
2024-05-09T22:49:05.783Z,71.49
2024-05-09T22:51:07.483Z,71.39
2024-05-09T22:53:09.098Z,71.53
2024-05-09T22:55:10.898Z,72.61
2024-05-09T22:57:12.634Z,71.07
2024-05-09T22:59:14.276Z,71.48
2024-05-09T23:01:16.004Z,73.12
2024-05-09T23:03:19.778Z,73.26
2024-05-09T23:05:21.674Z,73.47
2024-05-09T23:07:23.513Z,72.89
2024-05-09T23:09:25.140Z,73.33
2024-05-09T23:11:26.887Z,73.33
2024-05-09T23:13:28.652Z,73.99
2024-05-09T23:15:30.380Z,73.37
2024-05-09T23:17:32.098Z,74.23
2024-05-09T23:19:34.555Z,74.05
2024-05-09T23:21:39.627Z,73.50
2024-05-09T23:23:41.458Z,74.46
2024-05-09T23:25:43.223Z,73.36
2024-05-09T23:27:44.897Z,71.04
2024-05-09T23:29:46.578Z,72.97
2024-05-09T23:31:48.222Z,72.94
2024-05-09T23:33:50.041Z,73.79
2024-05-09T23:35:51.739Z,72.74
2024-05-09T23:37:53.368Z,69.80
2024-05-09T23:39:55.201Z,72.50
2024-05-09T23:41:56.823Z,72.95
2024-05-09T23:43:58.450Z,73.04
2024-05-09T23:46:00.132Z,72.69
2024-05-09T23:48:02.189Z,73.75
2024-05-09T23:50:08.950Z,74.58
2024-05-09T23:52:15.932Z,75.05
2024-05-09T23:54:17.654Z,74.25
2024-05-09T23:56:20.469Z,74.62
2024-05-09T23:58:22.323Z,75.73
